createdAt,value
2023-04-26T00:01:53.298Z,22.80
2023-04-26T00:03:56.618Z,22.67
2023-04-26T00:05:58.113Z,22.61
2023-04-26T00:07:59.518Z,22.57
2023-04-26T00:10:00.894Z,22.55
2023-04-26T00:12:02.861Z,22.65
2023-04-26T00:14:04.163Z,22.70
2023-04-26T00:16:06.007Z,22.73
2023-04-26T00:18:07.442Z,22.76
2023-04-26T00:20:11.630Z,22.79
2023-04-26T00:22:13.095Z,22.83
2023-04-26T00:24:14.402Z,22.35
2023-04-26T00:26:16.013Z,22.05
2023-04-26T00:28:17.399Z,22.24
2023-04-26T00:30:18.720Z,22.13
2023-04-26T00:32:20.150Z,22.02
2023-04-26T00:34:21.508Z,21.94
2023-04-26T00:36:22.804Z,21.85
2023-04-26T00:38:24.135Z,21.80
2023-04-26T00:40:25.466Z,21.77
2023-04-26T00:42:26.776Z,21.74
2023-04-26T00:44:28.112Z,21.70
2023-04-26T00:46:31.080Z,21.67
2023-04-26T00:48:32.416Z,21.65
2023-04-26T00:50:33.752Z,21.62
2023-04-26T00:52:35.088Z,21.59
2023-04-26T00:54:36.456Z,21.60
2023-04-26T00:56:37.811Z,21.61
2023-04-26T00:58:39.152Z,21.63
2023-04-26T01:00:40.467Z,21.63
2023-04-26T01:02:42.312Z,21.64
2023-04-26T01:04:45.346Z,21.63
2023-04-26T01:06:46.804Z,21.64
2023-04-26T01:08:48.225Z,21.65
2023-04-26T01:10:49.527Z,21.66
2023-04-26T01:12:50.996Z,21.66
2023-04-26T01:14:52.354Z,21.68
2023-04-26T01:16:53.719Z,21.68
2023-04-26T01:18:55.197Z,21.66
2023-04-26T01:20:57.175Z,21.66
2023-04-26T01:22:58.510Z,21.71
2023-04-26T01:24:59.871Z,21.73
2023-04-26T01:27:01.729Z,21.75
2023-04-26T01:29:03.128Z,21.75
2023-04-26T01:31:04.566Z,21.77
2023-04-26T01:33:06.613Z,21.76
2023-04-26T01:35:08.149Z,21.78
2023-04-26T01:37:09.512Z,21.75
2023-04-26T01:39:10.829Z,21.63
2023-04-26T01:41:12.422Z,21.62
2023-04-26T01:43:15.569Z,21.60
2023-04-26T01:45:17.588Z,21.61
2023-04-26T01:47:19.091Z,21.60
2023-04-26T01:49:20.428Z,21.58
2023-04-26T01:51:21.816Z,21.60
2023-04-26T01:53:23.171Z,21.62
2023-04-26T01:55:24.477Z,21.68
2023-04-26T01:57:25.809Z,21.73
2023-04-26T01:59:27.202Z,21.73
2023-04-26T02:01:28.655Z,21.72
2023-04-26T02:03:29.990Z,21.70
2023-04-26T02:05:31.398Z,21.68
2023-04-26T02:07:32.700Z,21.67
2023-04-26T02:09:34.004Z,21.66
2023-04-26T02:11:35.416Z,21.66
2023-04-26T02:13:36.884Z,21.65
2023-04-26T02:15:38.327Z,21.66
2023-04-26T02:17:39.857Z,21.66
2023-04-26T02:19:41.219Z,21.65
2023-04-26T02:21:42.551Z,21.67
2023-04-26T02:23:43.916Z,21.66
2023-04-26T02:25:45.261Z,21.65
2023-04-26T02:27:46.588Z,21.67
2023-04-26T02:29:47.941Z,21.70
2023-04-26T02:31:49.402Z,21.71
2023-04-26T02:33:50.949Z,21.71
2023-04-26T02:35:52.288Z,21.71
2023-04-26T02:37:53.633Z,21.69
2023-04-26T02:39:54.959Z,20.83
2023-04-26T02:41:56.354Z,21.69
2023-04-26T02:43:57.656Z,21.70
2023-04-26T02:46:00.947Z,21.74
2023-04-26T02:48:02.341Z,21.72
2023-04-26T02:50:07.633Z,21.69
2023-04-26T02:52:09.051Z,21.63
2023-04-26T02:54:10.376Z,21.59
2023-04-26T02:56:11.948Z,21.53
2023-04-26T02:58:13.322Z,21.51
2023-04-26T03:00:14.626Z,21.50
2023-04-26T03:02:15.997Z,21.48
2023-04-26T03:04:17.870Z,21.47
2023-04-26T03:06:19.280Z,21.48
2023-04-26T03:08:20.784Z,21.48
2023-04-26T03:10:22.077Z,21.49
2023-04-26T03:12:23.407Z,21.50
2023-04-26T03:14:24.896Z,21.50
2023-04-26T03:16:27.525Z,21.52
2023-04-26T03:18:28.936Z,21.54
2023-04-26T03:20:30.280Z,21.58
2023-04-26T03:22:31.593Z,21.64
2023-04-26T03:24:33.138Z,21.64
2023-04-26T03:26:34.467Z,21.69
2023-04-26T03:28:35.816Z,21.72
2023-04-26T03:30:37.218Z,21.72
2023-04-26T03:32:38.705Z,21.72
2023-04-26T03:34:40.058Z,21.71
2023-04-26T03:36:41.483Z,21.74
2023-04-26T03:38:42.909Z,21.76
2023-04-26T03:40:44.211Z,21.79
2023-04-26T03:42:45.976Z,21.79
2023-04-26T03:44:47.257Z,21.82
2023-04-26T03:46:48.668Z,21.81
2023-04-26T03:48:50.394Z,21.83
2023-04-26T03:50:51.926Z,21.79
2023-04-26T03:52:53.336Z,21.79
2023-04-26T03:54:54.663Z,21.80
2023-04-26T03:56:55.971Z,21.80
2023-04-26T03:58:57.378Z,21.80
2023-04-26T04:00:58.686Z,21.78
2023-04-26T04:03:00.277Z,21.76
2023-04-26T04:05:02.404Z,21.70
2023-04-26T04:07:03.790Z,21.69
2023-04-26T04:09:08.213Z,21.66
2023-04-26T04:11:09.555Z,21.62
2023-04-26T04:13:11.377Z,21.55
2023-04-26T04:15:12.731Z,21.54
2023-04-26T04:17:14.028Z,21.54
2023-04-26T04:19:15.357Z,21.53
2023-04-26T04:21:16.651Z,21.53
2023-04-26T04:23:18.022Z,21.51
2023-04-26T04:25:21.281Z,21.51
2023-04-26T04:27:22.787Z,21.51
2023-04-26T04:29:24.198Z,21.51
2023-04-26T04:31:25.558Z,21.52
2023-04-26T04:33:28.569Z,21.52
2023-04-26T04:35:33.516Z,21.60
2023-04-26T04:37:34.983Z,21.66
2023-04-26T04:39:36.491Z,21.68
2023-04-26T04:41:37.872Z,21.68
2023-04-26T04:43:39.152Z,21.69
2023-04-26T04:45:40.461Z,21.69
2023-04-26T04:47:41.889Z,21.70
2023-04-26T04:49:43.376Z,21.70
2023-04-26T04:51:44.720Z,21.77
2023-04-26T04:53:46.109Z,21.80
2023-04-26T04:55:47.476Z,21.85
2023-04-26T04:57:48.807Z,21.87
2023-04-26T04:59:50.133Z,21.97
2023-04-26T05:01:51.616Z,21.92
2023-04-26T05:03:53.243Z,21.89
2023-04-26T05:05:54.857Z,21.83
2023-04-26T05:07:56.235Z,21.80
2023-04-26T05:10:00.482Z,21.79
2023-04-26T05:12:03.114Z,21.78
2023-04-26T05:14:04.420Z,21.74
2023-04-26T05:16:05.829Z,21.69
2023-04-26T05:18:07.192Z,21.66
2023-04-26T05:20:08.540Z,21.67
2023-04-26T05:22:09.873Z,21.77
2023-04-26T05:24:11.302Z,21.79
2023-04-26T05:26:12.645Z,21.78
2023-04-26T05:28:14.394Z,21.76
2023-04-26T05:30:15.791Z,21.74
2023-04-26T05:32:17.125Z,21.76
2023-04-26T05:34:18.693Z,21.74
2023-04-26T05:36:20.015Z,21.70
2023-04-26T05:38:22.081Z,21.66
2023-04-26T05:40:23.560Z,21.64
2023-04-26T05:42:24.855Z,21.63
2023-04-26T05:44:26.192Z,21.64
2023-04-26T05:46:27.761Z,21.63
2023-04-26T05:48:29.962Z,21.63
2023-04-26T05:50:31.438Z,21.65
2023-04-26T05:52:32.734Z,21.66
2023-04-26T05:54:34.029Z,21.67
2023-04-26T05:56:35.346Z,21.65
2023-04-26T05:58:37.168Z,21.65
2023-04-26T06:00:41.956Z,21.65
2023-04-26T06:02:43.366Z,21.70
2023-04-26T06:04:45.011Z,21.71
2023-04-26T06:06:46.519Z,21.72
2023-04-26T06:08:47.866Z,21.73
2023-04-26T06:10:49.228Z,21.73
2023-04-26T06:12:50.679Z,21.76
2023-04-26T06:14:54.019Z,21.80
2023-04-26T06:16:55.351Z,21.79
2023-04-26T06:18:56.707Z,21.79
2023-04-26T06:20:58.062Z,21.80
2023-04-26T06:22:59.410Z,21.83
2023-04-26T06:25:00.818Z,21.84
2023-04-26T06:27:02.185Z,21.80
2023-04-26T06:29:03.567Z,21.84
2023-04-26T06:31:04.930Z,21.08
2023-04-26T06:33:06.282Z,21.82
2023-04-26T06:35:07.746Z,21.82
2023-04-26T06:37:09.099Z,21.83
2023-04-26T06:39:10.890Z,21.82
2023-04-26T06:41:12.252Z,21.80
2023-04-26T06:43:13.646Z,21.78
2023-04-26T06:45:15.038Z,21.76
2023-04-26T06:47:16.395Z,21.73
2023-04-26T06:49:17.704Z,21.72
2023-04-26T06:51:19.206Z,21.73
2023-04-26T06:53:22.891Z,21.69
2023-04-26T06:55:25.209Z,21.70
2023-04-26T06:57:26.787Z,21.69
2023-04-26T06:59:28.092Z,20.20
2023-04-26T07:01:29.592Z,19.06
2023-04-26T07:03:31.138Z,18.46
2023-04-26T07:05:32.508Z,18.07
2023-04-26T07:07:33.863Z,17.93
2023-04-26T07:09:35.666Z,17.71
2023-04-26T07:11:36.995Z,17.65
2023-04-26T07:13:40.973Z,17.85
2023-04-26T07:15:42.451Z,17.71
2023-04-26T07:17:43.830Z,17.75
2023-04-26T07:19:45.160Z,17.43
2023-04-26T07:21:46.468Z,17.06
2023-04-26T07:23:47.803Z,17.44
2023-04-26T07:25:49.156Z,17.76
2023-04-26T07:27:52.163Z,17.47
2023-04-26T07:29:53.507Z,18.81
2023-04-26T07:31:54.853Z,20.39
2023-04-26T07:33:56.834Z,21.01
2023-04-26T07:35:58.833Z,21.24
2023-04-26T07:38:00.188Z,21.42
2023-04-26T07:40:01.511Z,21.58
2023-04-26T07:42:03.057Z,21.63
2023-04-26T07:44:04.393Z,21.70
2023-04-26T07:46:05.776Z,21.78
2023-04-26T07:48:07.225Z,21.80
2023-04-26T07:50:08.631Z,20.61
2023-04-26T07:52:09.989Z,21.88
2023-04-26T07:54:11.342Z,21.90
2023-04-26T07:56:12.685Z,21.91
2023-04-26T07:58:14.733Z,21.86
2023-04-26T08:00:19.109Z,22.51
2023-04-26T08:02:24.982Z,22.88
2023-04-26T08:04:32.702Z,23.72
2023-04-26T08:06:34.320Z,23.14
2023-04-26T08:08:40.421Z,22.70
2023-04-26T08:10:42.758Z,22.52
2023-04-26T08:12:44.086Z,22.36
2023-04-26T08:14:46.327Z,22.20
2023-04-26T08:16:47.650Z,22.19
2023-04-26T08:18:51.945Z,22.17
2023-04-26T08:20:55.296Z,22.28
2023-04-26T08:22:59.519Z,22.94
2023-04-26T08:25:00.814Z,23.20
2023-04-26T08:27:02.339Z,23.27
2023-04-26T08:29:03.731Z,23.32
2023-04-26T08:31:05.359Z,23.31
2023-04-26T08:33:07.012Z,23.21
2023-04-26T08:35:09.591Z,23.54
2023-04-26T08:37:11.080Z,23.75
2023-04-26T08:39:12.535Z,23.44
2023-04-26T08:41:15.142Z,23.09
2023-04-26T08:43:17.539Z,23.23
2023-04-26T08:45:19.026Z,23.44
2023-04-26T08:47:20.574Z,23.29
2023-04-26T08:49:21.870Z,22.65
2023-04-26T08:51:23.310Z,22.29
2023-04-26T08:53:24.661Z,22.25
2023-04-26T08:55:25.994Z,22.26
2023-04-26T08:57:27.309Z,22.27
2023-04-26T08:59:28.603Z,22.12
2023-04-26T09:01:29.991Z,21.99
2023-04-26T09:03:31.565Z,22.30
2023-04-26T09:05:33.061Z,22.66
2023-04-26T09:07:34.444Z,22.66
2023-04-26T09:09:37.952Z,22.93
2023-04-26T09:11:39.274Z,23.13
2023-04-26T09:13:40.696Z,22.85
2023-04-26T09:15:42.287Z,22.71
2023-04-26T09:17:44.347Z,22.69
2023-04-26T09:19:45.828Z,23.06
2023-04-26T09:21:47.259Z,22.79
2023-04-26T09:23:48.568Z,22.48
2023-04-26T09:25:49.861Z,22.14
2023-04-26T09:27:51.197Z,21.91
2023-04-26T09:29:52.504Z,22.17
2023-04-26T09:31:53.974Z,22.41
2023-04-26T09:33:55.372Z,22.09
2023-04-26T09:35:56.672Z,21.86
2023-04-26T09:38:07.850Z,21.74
2023-04-26T09:40:13.286Z,21.68
2023-04-26T09:42:14.570Z,21.73
2023-04-26T09:44:15.881Z,21.81
2023-04-26T09:46:17.234Z,21.89
2023-04-26T09:48:18.587Z,21.94
2023-04-26T09:50:19.887Z,21.87
2023-04-26T09:52:21.209Z,21.79
2023-04-26T09:54:22.518Z,21.77
2023-04-26T09:56:23.812Z,21.75
2023-04-26T09:58:25.163Z,21.86
2023-04-26T10:00:26.511Z,21.86
2023-04-26T10:02:28.123Z,21.83
2023-04-26T10:04:29.894Z,21.78
2023-04-26T10:06:33.006Z,21.75
2023-04-26T10:08:34.402Z,21.73
2023-04-26T10:10:36.236Z,21.68
2023-04-26T10:12:37.545Z,21.66
2023-04-26T10:14:38.857Z,21.67
2023-04-26T10:16:40.293Z,21.69
2023-04-26T10:18:41.692Z,21.85
2023-04-26T10:20:43.018Z,21.91
2023-04-26T10:22:44.346Z,21.93
2023-04-26T10:24:45.836Z,21.90
2023-04-26T10:26:48.563Z,21.84
2023-04-26T10:28:52.315Z,21.96
2023-04-26T10:30:56.199Z,22.06
2023-04-26T10:32:57.930Z,22.11
2023-04-26T10:34:59.488Z,22.26
2023-04-26T10:37:00.838Z,22.32
2023-04-26T10:39:02.213Z,22.35
2023-04-26T10:41:03.513Z,22.38
2023-04-26T10:43:04.855Z,22.34
2023-04-26T10:45:06.161Z,22.28
2023-04-26T10:47:07.555Z,22.17
2023-04-26T10:49:08.912Z,22.08
2023-04-26T10:51:13.049Z,22.02
2023-04-26T10:53:14.417Z,21.97
2023-04-26T10:55:15.728Z,21.94
2023-04-26T10:57:17.299Z,21.95
2023-04-26T10:59:36.350Z,22.04
2023-04-26T11:01:40.490Z,22.04
2023-04-26T11:03:42.059Z,21.99
2023-04-26T11:05:43.695Z,21.94
2023-04-26T11:07:45.034Z,21.87
2023-04-26T11:09:46.558Z,21.83
2023-04-26T11:11:47.859Z,21.79
2023-04-26T11:13:49.155Z,21.78
2023-04-26T11:15:52.047Z,21.77
2023-04-26T11:17:53.984Z,21.77
2023-04-26T11:19:55.362Z,21.76
2023-04-26T11:21:56.732Z,21.85
2023-04-26T11:23:58.029Z,21.74
2023-04-26T11:25:59.504Z,21.65
2023-04-26T11:28:01.317Z,21.58
2023-04-26T11:30:02.631Z,21.65
2023-04-26T11:32:04.084Z,21.75
2023-04-26T11:34:05.418Z,21.86
2023-04-26T11:36:06.734Z,21.75
2023-04-26T11:38:08.186Z,21.65
2023-04-26T11:40:09.504Z,21.58
2023-04-26T11:42:11.025Z,21.50
2023-04-26T11:44:12.720Z,21.49
2023-04-26T11:46:14.097Z,21.47
2023-04-26T11:48:15.467Z,21.45
2023-04-26T11:50:16.789Z,21.44
2023-04-26T11:52:18.085Z,21.47
2023-04-26T11:54:19.383Z,21.48
2023-04-26T11:56:20.771Z,21.51
2023-04-26T11:58:22.085Z,21.54
2023-04-26T12:00:23.430Z,21.60
2023-04-26T12:02:24.859Z,21.64
2023-04-26T12:04:27.601Z,21.67
2023-04-26T12:06:33.096Z,21.68
2023-04-26T12:08:34.482Z,21.68
2023-04-26T12:10:35.922Z,21.72
2023-04-26T12:12:37.335Z,21.78
2023-04-26T12:14:38.703Z,21.77
2023-04-26T12:16:40.065Z,21.74
2023-04-26T12:18:41.494Z,21.73
2023-04-26T12:20:42.798Z,21.69
2023-04-26T12:22:44.130Z,21.65
2023-04-26T12:24:47.594Z,21.61
2023-04-26T12:26:48.895Z,21.57
2023-04-26T12:28:50.499Z,21.52
2023-04-26T12:30:51.805Z,21.51
2023-04-26T12:32:54.352Z,21.47
2023-04-26T12:34:59.048Z,21.47
2023-04-26T12:37:00.407Z,21.46
2023-04-26T12:39:05.243Z,21.55
2023-04-26T12:41:07.152Z,21.61
2023-04-26T12:43:08.575Z,21.59
2023-04-26T12:45:10.139Z,21.55
2023-04-26T12:47:11.432Z,21.52
2023-04-26T12:49:12.770Z,21.51
2023-04-26T12:51:14.332Z,21.54
2023-04-26T12:53:15.736Z,21.60
2023-04-26T12:55:17.141Z,21.60
2023-04-26T12:57:18.454Z,21.52
2023-04-26T12:59:19.753Z,21.53
2023-04-26T13:01:21.376Z,21.57
2023-04-26T13:03:22.867Z,21.59
2023-04-26T13:05:29.592Z,21.54
2023-04-26T13:07:30.964Z,21.63
2023-04-26T13:09:32.267Z,21.69
2023-04-26T13:11:33.582Z,21.74
2023-04-26T13:13:43.007Z,21.75
2023-04-26T13:15:44.732Z,21.75
2023-04-26T13:17:46.270Z,21.75
2023-04-26T13:19:47.632Z,21.76
2023-04-26T13:21:49.016Z,21.79
2023-04-26T13:23:50.563Z,21.83
2023-04-26T13:25:54.571Z,21.69
2023-04-26T13:27:55.897Z,21.58
2023-04-26T13:29:57.297Z,21.60
2023-04-26T13:32:02.143Z,21.55
2023-04-26T13:34:03.441Z,21.58
2023-04-26T13:36:04.740Z,21.58
2023-04-26T13:38:06.123Z,21.59
2023-04-26T13:40:07.492Z,21.63
2023-04-26T13:42:08.852Z,21.66
2023-04-26T13:44:14.263Z,21.70
2023-04-26T13:46:15.618Z,21.75
2023-04-26T13:48:17.473Z,21.87
2023-04-26T13:50:20.090Z,22.00
2023-04-26T13:52:21.745Z,22.10
2023-04-26T13:54:23.188Z,22.18
2023-04-26T13:56:26.197Z,22.20
2023-04-26T13:58:27.680Z,22.01
2023-04-26T14:00:29.024Z,21.89
2023-04-26T14:02:30.411Z,21.81
2023-04-26T14:04:31.996Z,21.74
2023-04-26T14:06:34.136Z,21.68
2023-04-26T14:08:35.576Z,21.64
2023-04-26T14:10:36.911Z,21.58
2023-04-26T14:12:38.320Z,21.55
2023-04-26T14:14:39.669Z,21.50
2023-04-26T14:16:41.232Z,21.48
2023-04-26T14:18:45.130Z,21.47
2023-04-26T14:20:46.875Z,21.45
2023-04-26T14:22:50.227Z,21.46
2023-04-26T14:24:51.644Z,21.46
2023-04-26T14:26:52.961Z,21.41
2023-04-26T14:28:54.312Z,21.41
2023-04-26T14:30:55.676Z,21.41
2023-04-26T14:32:57.052Z,21.45
2023-04-26T14:34:58.438Z,21.53
2023-04-26T14:37:02.267Z,21.46
2023-04-26T14:39:03.595Z,21.40
2023-04-26T14:41:04.893Z,21.33
2023-04-26T14:43:06.290Z,21.28
2023-04-26T14:45:07.593Z,21.27
2023-04-26T14:47:11.663Z,21.25
2023-04-26T14:49:12.970Z,21.21
2023-04-26T14:51:14.313Z,21.18
2023-04-26T14:53:15.961Z,21.14
2023-04-26T14:55:17.612Z,21.11
2023-04-26T14:57:21.589Z,21.08
2023-04-26T14:59:22.892Z,21.06
2023-04-26T15:01:25.173Z,21.08
2023-04-26T15:03:27.763Z,21.11
2023-04-26T15:05:30.164Z,21.16
2023-04-26T15:07:32.825Z,21.22
2023-04-26T15:09:34.479Z,21.31
2023-04-26T15:11:36.054Z,21.41
2023-04-26T15:13:40.430Z,21.49
2023-04-26T15:15:42.226Z,21.55
2023-04-26T15:17:43.615Z,21.63
2023-04-26T15:19:44.960Z,21.67
2023-04-26T15:21:46.315Z,21.74
2023-04-26T15:23:47.678Z,21.81
2023-04-26T15:25:49.002Z,21.79
2023-04-26T15:27:50.701Z,21.75
2023-04-26T15:29:52.026Z,21.72
2023-04-26T15:31:53.378Z,21.69
2023-04-26T15:33:55.128Z,21.65
2023-04-26T15:35:59.527Z,20.78
2023-04-26T15:38:03.884Z,21.59
2023-04-26T15:40:06.206Z,21.52
2023-04-26T15:42:07.559Z,21.49
2023-04-26T15:44:08.881Z,21.46
2023-04-26T15:46:10.227Z,21.42
2023-04-26T15:48:12.045Z,21.37
2023-04-26T15:50:13.364Z,21.33
2023-04-26T15:52:17.039Z,21.28
2023-04-26T15:54:18.354Z,21.24
2023-04-26T15:56:19.661Z,21.21
2023-04-26T15:58:20.962Z,21.19
2023-04-26T16:00:22.630Z,21.17
2023-04-26T16:02:24.021Z,21.15
2023-04-26T16:04:28.442Z,21.15
2023-04-26T16:06:30.160Z,21.13
2023-04-26T16:08:40.030Z,21.11
2023-04-26T16:10:42.179Z,21.08
2023-04-26T16:12:44.491Z,21.07
2023-04-26T16:14:52.405Z,21.07
2023-04-26T16:16:53.699Z,21.05
2023-04-26T16:18:54.993Z,21.04
2023-04-26T16:20:56.345Z,21.04
2023-04-26T16:23:03.324Z,21.03
2023-04-26T16:25:06.847Z,21.04
2023-04-26T16:27:09.154Z,21.05
2023-04-26T16:29:10.480Z,21.07
2023-04-26T16:31:11.887Z,21.09
2023-04-26T16:33:16.215Z,21.10
2023-04-26T16:35:17.567Z,21.13
2023-04-26T16:37:18.953Z,21.17
2023-04-26T16:39:21.555Z,21.21
2023-04-26T16:41:27.431Z,21.25
2023-04-26T16:43:29.000Z,21.30
2023-04-26T16:45:31.385Z,21.34
2023-04-26T16:47:32.675Z,21.40
2023-04-26T16:49:34.272Z,21.41
2023-04-26T16:51:35.909Z,21.40
2023-04-26T16:53:40.292Z,21.41
2023-04-26T16:55:41.609Z,21.41
2023-04-26T16:57:42.942Z,21.38
2023-04-26T16:59:44.252Z,21.39
2023-04-26T17:01:46.474Z,21.39
2023-04-26T17:03:48.729Z,21.37
2023-04-26T17:05:50.182Z,21.33
2023-04-26T17:07:51.678Z,21.30
2023-04-26T17:09:53.810Z,21.28
2023-04-26T17:11:55.174Z,21.26
2023-04-26T17:13:57.178Z,21.24
2023-04-26T17:15:58.516Z,21.20
2023-04-26T17:18:00.109Z,21.19
2023-04-26T17:20:02.240Z,21.17
2023-04-26T17:22:03.572Z,21.14
2023-04-26T17:24:07.834Z,21.09
2023-04-26T17:26:09.172Z,21.08
2023-04-26T17:28:10.788Z,21.07
2023-04-26T17:30:12.162Z,21.06
2023-04-26T17:32:13.516Z,21.04
2023-04-26T17:34:14.880Z,21.04
2023-04-26T17:36:16.422Z,21.03
2023-04-26T17:38:17.752Z,21.02
2023-04-26T17:40:19.125Z,21.03
2023-04-26T17:42:23.391Z,21.02
2023-04-26T17:44:27.581Z,21.01
2023-04-26T17:46:31.909Z,21.00
2023-04-26T17:48:33.235Z,21.01
2023-04-26T17:50:37.404Z,21.02
2023-04-26T17:52:39.353Z,21.01
2023-04-26T17:54:43.368Z,21.00
2023-04-26T17:56:44.704Z,21.02
2023-04-26T17:58:49.053Z,21.01
2023-04-26T18:00:50.589Z,21.03
2023-04-26T18:02:52.012Z,21.03
2023-04-26T18:04:54.042Z,20.29
2023-04-26T18:06:55.545Z,21.08
2023-04-26T18:08:59.752Z,21.12
2023-04-26T18:11:01.350Z,21.14
2023-04-26T18:13:02.822Z,21.17
2023-04-26T18:15:04.152Z,21.19
2023-04-26T18:17:05.497Z,21.19
2023-04-26T18:19:06.863Z,21.15
2023-04-26T18:21:08.287Z,21.09
2023-04-26T18:23:09.598Z,21.04
2023-04-26T18:25:13.952Z,21.00
2023-04-26T18:27:15.517Z,20.94
2023-04-26T18:29:16.923Z,20.92
2023-04-26T18:31:18.289Z,20.89
2023-04-26T18:33:19.854Z,20.91
2023-04-26T18:35:21.341Z,20.93
2023-04-26T18:37:25.316Z,20.94
2023-04-26T18:39:26.624Z,20.94
2023-04-26T18:41:27.909Z,20.96
2023-04-26T18:43:29.228Z,20.98
2023-04-26T18:45:30.554Z,21.00
2023-04-26T18:47:31.915Z,21.02
2023-04-26T18:49:33.408Z,21.04
2023-04-26T18:51:34.706Z,21.08
2023-04-26T18:53:38.973Z,21.09
2023-04-26T18:55:40.594Z,21.07
2023-04-26T18:57:41.902Z,21.08
2023-04-26T18:59:43.213Z,21.11
2023-04-26T19:01:47.343Z,21.11
2023-04-26T19:03:48.932Z,21.12
2023-04-26T19:05:50.411Z,21.13
2023-04-26T19:07:54.639Z,21.13
2023-04-26T19:09:56.988Z,21.13
2023-04-26T19:12:00.250Z,21.11
2023-04-26T19:14:04.611Z,21.10
2023-04-26T19:16:09.241Z,21.09
2023-04-26T19:18:10.941Z,21.09
2023-04-26T19:20:14.026Z,21.08
2023-04-26T19:22:15.321Z,21.06
2023-04-26T19:24:16.657Z,21.04
2023-04-26T19:26:18.027Z,21.05
2023-04-26T19:28:20.097Z,21.04
2023-04-26T19:30:22.119Z,21.04
2023-04-26T19:32:23.825Z,21.04
2023-04-26T19:34:26.117Z,21.02
2023-04-26T19:36:27.595Z,21.00
2023-04-26T19:38:28.948Z,21.01
2023-04-26T19:40:30.294Z,21.01
2023-04-26T19:42:31.613Z,21.00
2023-04-26T19:44:36.126Z,21.00
2023-04-26T19:46:40.957Z,21.02
2023-04-26T19:48:42.364Z,21.00
2023-04-26T19:50:43.823Z,21.00
2023-04-26T19:52:45.415Z,20.99
2023-04-26T19:54:46.792Z,20.99
2023-04-26T19:56:48.108Z,20.98
2023-04-26T19:58:49.458Z,20.98
2023-04-26T20:00:51.143Z,21.00
2023-04-26T20:02:52.897Z,21.00
2023-04-26T20:04:54.342Z,21.00
2023-04-26T20:06:56.206Z,21.00
2023-04-26T20:08:57.613Z,21.01
2023-04-26T20:10:59.003Z,21.01
2023-04-26T20:13:00.721Z,21.02
2023-04-26T20:15:02.139Z,21.03
2023-04-26T20:17:03.971Z,21.03
2023-04-26T20:19:05.692Z,21.04
2023-04-26T20:21:07.201Z,21.05
2023-04-26T20:23:08.572Z,21.07
2023-04-26T20:25:09.926Z,21.07
2023-04-26T20:27:11.236Z,21.07
2023-04-26T20:29:15.893Z,21.09
2023-04-26T20:31:17.363Z,21.08
2023-04-26T20:33:21.770Z,21.10
2023-04-26T20:35:23.096Z,21.09
2023-04-26T20:37:24.396Z,21.10
2023-04-26T20:39:28.284Z,21.12
2023-04-26T20:41:29.636Z,21.11
2023-04-26T20:43:30.946Z,21.10
2023-04-26T20:45:32.298Z,21.06
2023-04-26T20:47:36.531Z,21.06
2023-04-26T20:49:37.871Z,21.04
2023-04-26T20:51:39.174Z,21.02
2023-04-26T20:53:41.025Z,21.00
2023-04-26T20:55:42.361Z,20.98
2023-04-26T20:57:43.703Z,20.98
2023-04-26T20:59:45.066Z,20.94
2023-04-26T21:01:46.379Z,20.94
2023-04-26T21:03:47.897Z,20.94
2023-04-26T21:05:49.339Z,20.93
2023-04-26T21:07:50.674Z,20.95
2023-04-26T21:09:52.313Z,20.95
2023-04-26T21:11:54.121Z,20.94
2023-04-26T21:13:58.402Z,20.95
2023-04-26T21:15:59.766Z,20.95
2023-04-26T21:18:01.141Z,20.95
2023-04-26T21:20:02.542Z,21.46
2023-04-26T21:22:03.883Z,22.31
2023-04-26T21:24:05.190Z,22.47
2023-04-26T21:26:06.686Z,22.78
2023-04-26T21:28:08.135Z,22.80
2023-04-26T21:30:09.430Z,23.17
2023-04-26T21:32:11.684Z,22.85
2023-04-26T21:34:13.100Z,23.11
2023-04-26T21:36:14.478Z,23.08
2023-04-26T21:38:15.925Z,23.11
2023-04-26T21:40:17.264Z,23.04
2023-04-26T21:42:18.736Z,22.63
2023-04-26T21:44:20.077Z,22.64
2023-04-26T21:46:21.472Z,22.51
2023-04-26T21:48:22.814Z,22.64
2023-04-26T21:50:24.166Z,22.55
2023-04-26T21:52:25.938Z,22.49
2023-04-26T21:54:27.233Z,22.45
2023-04-26T21:56:28.627Z,22.46
2023-04-26T21:58:29.915Z,22.42
2023-04-26T22:00:31.913Z,22.41
2023-04-26T22:02:33.447Z,22.46
2023-04-26T22:04:34.906Z,22.73
2023-04-26T22:06:36.272Z,23.16
2023-04-26T22:08:38.602Z,23.23
2023-04-26T22:10:39.959Z,23.08
2023-04-26T22:12:41.434Z,23.38
2023-04-26T22:14:42.760Z,23.75
2023-04-26T22:16:44.107Z,23.33
2023-04-26T22:18:45.602Z,23.04
2023-04-26T22:20:47.005Z,22.99
2023-04-26T22:22:48.313Z,22.84
2023-04-26T22:24:49.620Z,22.81
2023-04-26T22:26:51.205Z,22.76
2023-04-26T22:28:52.504Z,22.72
2023-04-26T22:30:53.797Z,22.76
2023-04-26T22:32:55.711Z,22.71
2023-04-26T22:34:57.094Z,22.68
2023-04-26T22:37:06.202Z,22.58
2023-04-26T22:39:14.868Z,22.56
2023-04-26T22:41:16.363Z,22.43
2023-04-26T22:43:17.677Z,22.54
2023-04-26T22:45:19.067Z,22.61
2023-04-26T22:47:22.795Z,22.60
2023-04-26T22:49:24.096Z,22.55
2023-04-26T22:51:25.530Z,22.10
2023-04-26T22:53:26.820Z,21.81
2023-04-26T22:55:28.198Z,21.65
2023-04-26T22:57:29.663Z,21.57
2023-04-26T22:59:34.191Z,21.95
2023-04-26T23:01:35.679Z,22.78
2023-04-26T23:03:37.159Z,22.67
2023-04-26T23:05:38.567Z,22.65
2023-04-26T23:07:39.948Z,22.62
2023-04-26T23:09:41.327Z,22.60
2023-04-26T23:11:42.693Z,22.73
2023-04-26T23:13:44.016Z,22.81
2023-04-26T23:15:45.610Z,22.89
2023-04-26T23:17:47.038Z,22.94
2023-04-26T23:19:48.417Z,22.98
2023-04-26T23:21:49.728Z,23.01
2023-04-26T23:23:51.192Z,23.13
2023-04-26T23:25:52.516Z,23.02
2023-04-26T23:27:53.808Z,23.08
2023-04-26T23:29:55.117Z,23.03
2023-04-26T23:31:56.545Z,23.14
2023-04-26T23:33:57.935Z,23.42
2023-04-26T23:35:59.274Z,23.19
2023-04-26T23:38:00.585Z,23.05
2023-04-26T23:40:02.251Z,23.02
2023-04-26T23:42:03.946Z,22.91
2023-04-26T23:44:05.740Z,22.84
2023-04-26T23:46:07.158Z,22.49
2023-04-26T23:48:08.527Z,22.46
2023-04-26T23:50:09.866Z,22.88
2023-04-26T23:52:11.511Z,23.14
2023-04-26T23:54:12.827Z,22.95
2023-04-26T23:56:14.159Z,23.07
2023-04-26T23:58:15.497Z,23.08
